Time;durP1;ratioP1;P1;durP2;ratioP2;P2;SDS_P1;SDS_P2;PMS_P1;PMS_P2;Temp;Humidity;BMP_temperature;BMP_pressure;BME280_temperature;BME280_humidity;BME280_pressure;Samples;Min_cycle;Max_cycle;Signal;HPM_P1;HPM_P2
2021/04/24 00:02:17;;;;;;;6.80;4.50;;;17.20;32.60;;;;;;5045072;28;20228;-42
2021/04/24 00:04:43;;;;;;;7.13;4.87;;;17.20;32.60;;;;;;5046238;28;20211;-43
2021/04/24 00:07:09;;;;;;;5.70;5.17;;;17.20;32.60;;;;;;5046785;28;20443;-43
2021/04/24 00:09:36;;;;;;;6.70;5.20;;;17.10;32.50;;;;;;5049181;28;20196;-45
2021/04/24 00:12:03;;;;;;;6.23;5.20;;;17.00;32.80;;;;;;5043244;28;20458;-42
2021/04/24 00:14:29;;;;;;;6.80;4.97;;;17.00;32.80;;;;;;5045102;28;20438;-43
2021/04/24 00:16:55;;;;;;;8.60;5.70;;;16.80;32.80;;;;;;5047793;28;20478;-44
2021/04/24 00:19:20;;;;;;;8.33;4.70;;;16.60;33.20;;;;;;5045136;28;20193;-42
2021/04/24 00:21:46;;;;;;;8.37;5.77;;;16.50;33.90;;;;;;5037155;28;20444;-43
2021/04/24 00:24:11;;;;;;;6.53;4.60;;;16.50;34.10;;;;;;5043259;28;20824;-42
2021/04/24 00:26:37;;;;;;;9.30;4.37;;;16.50;34.30;;;;;;5037876;28;20197;-43
2021/04/24 00:29:04;;;;;;;5.03;4.33;;;16.60;34.20;;;;;;5044094;28;20200;-44
2021/04/24 00:31:29;;;;;;;6.87;4.27;;;16.40;34.10;;;;;;5048749;28;20264;-46
2021/04/24 00:33:55;;;;;;;8.43;4.67;;;16.30;34.60;;;;;;5037978;28;20807;-43
2021/04/24 00:36:21;;;;;;;6.27;4.70;;;16.40;34.70;;;;;;5047803;28;20220;-42
2021/04/24 00:38:46;;;;;;;6.33;4.80;;;16.40;35.00;;;;;;5050924;28;20658;-44
2021/04/24 00:41:13;;;;;;;7.67;4.77;;;16.30;34.50;;;;;;5051073;28;20196;-44
2021/04/24 00:43:39;;;;;;;7.00;4.60;;;16.10;35.10;;;;;;5045029;28;20263;-44
2021/04/24 00:46:09;;;;;;;6.17;5.10;;;16.20;35.10;;;;;;5052348;28;20477;-42
2021/04/24 00:48:34;;;;;;;8.13;4.70;;;16.30;34.60;;;;;;5049221;28;20200;-43
2021/04/24 00:51:00;;;;;;;6.63;4.60;;;16.30;34.70;;;;;;5048375;28;20461;-43
2021/04/24 00:53:26;;;;;;;6.87;4.90;;;16.40;34.20;;;;;;5046030;28;20561;-42
2021/04/24 00:55:52;;;;;;;9.47;4.60;;;16.30;34.30;;;;;;5049871;28;20679;-42
2021/04/24 00:58:17;;;;;;;6.37;4.47;;;16.20;34.20;;;;;;5048283;28;20197;-42
2021/04/24 01:00:43;;;;;;;5.53;4.73;;;16.20;34.40;;;;;;5049050;28;20199;-43
2021/04/24 01:03:09;;;;;;;7.30;4.57;;;16.20;35.20;;;;;;5048963;28;20966;-44
2021/04/24 01:05:38;;;;;;;8.10;5.17;;;16.10;34.30;;;;;;5046893;28;20231;-42
2021/04/24 01:08:05;;;;;;;9.97;5.00;;;16.10;34.50;;;;;;5048705;28;20247;-43
2021/04/24 01:10:35;;;;;;;7.73;5.60;;;15.80;34.70;;;;;;5049549;28;20450;-43
2021/04/24 01:13:00;;;;;;;11.00;5.40;;;15.60;35.40;;;;;;5045199;28;20450;-44
2021/04/24 01:15:27;;;;;;;5.77;5.17;;;15.40;35.50;;;;;;5050406;28;20438;-43
2021/04/24 01:17:52;;;;;;;7.83;5.87;;;15.20;35.70;;;;;;5049579;28;20620;-43
2021/04/24 01:20:19;;;;;;;8.07;6.03;;;15.10;36.50;;;;;;5046409;28;20522;-44
2021/04/24 01:22:46;;;;;;;6.07;5.50;;;15.20;36.40;;;;;;5047659;28;20307;-42
2021/04/24 01:25:14;;;;;;;8.53;5.73;;;15.00;36.00;;;;;;5047982;28;20461;-42
2021/04/24 01:27:40;;;;;;;7.27;5.20;;;15.10;36.30;;;;;;5035545;28;20478;-42
2021/04/24 01:30:09;;;;;;;10.10;5.63;;;15.10;36.10;;;;;;5049303;28;20450;-42
2021/04/24 01:32:35;;;;;;;9.27;6.03;;;15.20;36.10;;;;;;5051303;28;20457;-43
2021/04/24 01:35:01;;;;;;;9.23;6.00;;;15.20;36.30;;;;;;5046950;28;20549;-42
2021/04/24 01:37:26;;;;;;;7.47;4.60;;;15.20;36.00;;;;;;5049280;28;20185;-42
2021/04/24 01:39:52;;;;;;;5.97;4.47;;;15.10;36.10;;;;;;5047016;28;20502;-42
2021/04/24 01:42:17;;;;;;;7.37;5.00;;;15.10;36.10;;;;;;5047448;28;20220;-43
2021/04/24 01:44:43;;;;;;;6.37;4.80;;;15.00;36.40;;;;;;5047992;28;20258;-42
2021/04/24 01:47:09;;;;;;;10.13;5.37;;;15.00;37.00;;;;;;5040972;28;20680;-42
2021/04/24 01:49:34;;;;;;;5.47;4.70;;;15.10;36.90;;;;;;5045820;28;20219;-42
2021/04/24 01:52:00;;;;;;;7.80;5.13;;;15.10;37.10;;;;;;5049342;28;20663;-42
2021/04/24 01:54:26;;;;;;;10.13;5.00;;;15.20;37.10;;;;;;5049466;28;20201;-43
2021/04/24 01:56:55;;;;;;;7.53;4.20;;;15.30;37.30;;;;;;5046350;28;20184;-42
2021/04/24 01:59:24;;;;;;;5.83;4.67;;;15.40;36.00;;;;;;5047929;28;20250;-43
2021/04/24 02:01:52;;;;;;;6.50;5.03;;;15.50;35.70;;;;;;5043859;28;20853;-43
2021/04/24 02:04:19;;;;;;;7.03;4.80;;;15.40;35.80;;;;;;5043906;28;20440;-43
2021/04/24 02:06:45;;;;;;;6.23;4.83;;;15.40;35.60;;;;;;5040040;28;20435;-42
2021/04/24 02:09:12;;;;;;;8.97;4.80;;;15.30;35.80;;;;;;5044384;28;20447;-43
2021/04/24 02:12:17;;;;;;;6.90;4.03;;;15.30;35.70;;;;;;5045902;28;20473;-42
2021/04/24 02:14:48;;;;;;;9.43;4.30;;;15.30;35.40;;;;;;5046431;28;20827;-42
2021/04/24 02:17:26;;;;;;;5.60;4.17;;;15.20;35.70;;;;;;5041623;28;20449;-42
2021/04/24 02:19:53;;;;;;;6.17;4.60;;;15.20;35.40;;;;;;5050208;28;20441;-42
2021/04/24 02:22:20;;;;;;;5.97;4.93;;;15.20;35.60;;;;;;5045214;28;20486;-42
2021/04/24 02:24:58;;;;;;;8.17;4.60;;;15.20;35.50;;;;;;5050528;28;20447;-42
2021/04/24 02:27:25;;;;;;;5.90;4.30;;;15.00;36.30;;;;;;5048089;28;20447;-43
2021/04/24 02:29:54;;;;;;;8.03;5.07;;;15.00;37.00;;;;;;5043617;28;20956;-42
2021/04/24 02:32:22;;;;;;;6.87;4.17;;;15.00;37.10;;;;;;5044993;28;20492;-42
2021/04/24 02:34:48;;;;;;;8.20;4.50;;;15.10;36.90;;;;;;5047565;28;20516;-42
2021/04/24 02:37:16;;;;;;;10.97;5.40;;;15.10;37.30;;;;;;5041028;28;20455;-42
2021/04/24 02:39:45;;;;;;;8.17;6.17;;;15.10;36.30;;;;;;5049963;28;20189;-44
2021/04/24 02:42:20;;;;;;;6.00;4.70;;;15.00;35.70;;;;;;5048299;28;20495;-42
2021/04/24 02:44:46;;;;;;;12.20;5.90;;;14.90;35.80;;;;;;5045996;28;20948;-43
2021/04/24 02:47:12;;;;;;;6.67;5.30;;;14.70;36.20;;;;;;5038630;28;20461;-42
2021/04/24 02:49:39;;;;;;;7.40;4.30;;;14.40;36.40;;;;;;5048110;28;20583;-42
2021/04/24 02:52:06;;;;;;;5.83;4.60;;;14.30;37.80;;;;;;5044983;28;20216;-42
2021/04/24 02:54:32;;;;;;;6.10;5.10;;;14.30;38.10;;;;;;5045207;28;20833;-42
2021/04/24 02:56:58;;;;;;;5.53;4.43;;;14.30;37.40;;;;;;5051288;28;20431;-41
2021/04/24 02:59:24;;;;;;;6.57;4.10;;;14.40;37.70;;;;;;5043754;28;20479;-42
2021/04/24 03:01:50;;;;;;;5.20;4.30;;;14.50;38.40;;;;;;5045493;28;20483;-43
2021/04/24 03:04:16;;;;;;;6.73;5.00;;;14.60;37.90;;;;;;5047730;28;20224;-42
2021/04/24 03:06:42;;;;;;;8.83;5.00;;;14.70;37.90;;;;;;5024719;28;20554;-41
2021/04/24 03:09:08;;;;;;;5.27;3.90;;;14.70;37.50;;;;;;5044097;28;20223;-43
2021/04/24 03:11:34;;;;;;;5.60;4.00;;;14.80;37.50;;;;;;5041359;28;20439;-44
2021/04/24 03:14:00;;;;;;;9.93;5.53;;;14.90;37.70;;;;;;5048474;28;20508;-44
2021/04/24 03:16:25;;;;;;;8.03;4.67;;;14.90;37.60;;;;;;5049660;28;21171;-44
2021/04/24 03:18:53;;;;;;;5.20;4.70;;;14.90;37.40;;;;;;5041597;28;20199;-45
2021/04/24 03:21:20;;;;;;;7.17;5.30;;;15.00;37.00;;;;;;5051077;28;20215;-44
2021/04/24 03:23:46;;;;;;;5.17;4.33;;;15.00;37.40;;;;;;5044993;28;20482;-44
2021/04/24 03:26:12;;;;;;;9.67;5.10;;;15.10;37.20;;;;;;5042803;28;20702;-45
2021/04/24 03:28:38;;;;;;;5.80;4.37;;;15.10;36.60;;;;;;5046684;28;20427;-44
2021/04/24 03:31:03;;;;;;;10.90;5.10;;;15.10;36.50;;;;;;5042091;28;20592;-44
2021/04/24 03:33:29;;;;;;;10.40;4.00;;;15.10;37.00;;;;;;5046749;28;20198;-43
2021/04/24 03:35:54;;;;;;;8.37;4.50;;;15.00;37.30;;;;;;5045008;28;20275;-44
2021/04/24 03:38:20;;;;;;;6.60;4.83;;;15.00;37.20;;;;;;5046561;28;20200;-44
2021/04/24 03:40:46;;;;;;;8.00;5.30;;;14.90;36.80;;;;;;5046606;28;20188;-44
2021/04/24 03:43:11;;;;;;;6.50;5.00;;;14.80;36.80;;;;;;5041000;28;20667;-44
2021/04/24 03:45:37;;;;;;;7.00;5.10;;;14.70;36.70;;;;;;5050219;28;20220;-43
2021/04/24 03:48:03;;;;;;;8.90;6.10;;;14.50;36.80;;;;;;5043919;28;20200;-44
2021/04/24 03:50:29;;;;;;;6.30;5.37;;;14.40;37.10;;;;;;5050593;28;20192;-44
2021/04/24 03:52:55;;;;;;;7.97;4.70;;;14.30;36.90;;;;;;5049266;28;20854;-44
2021/04/24 03:55:23;;;;;;;6.23;5.37;;;14.30;37.10;;;;;;5048945;28;20185;-44
2021/04/24 03:57:49;;;;;;;6.57;5.40;;;14.30;37.90;;;;;;5042277;28;20842;-43
2021/04/24 04:00:19;;;;;;;7.13;4.80;;;14.30;37.30;;;;;;5044898;28;20439;-45
2021/04/24 04:02:48;;;;;;;7.93;5.37;;;14.30;37.40;;;;;;5045504;28;20612;-44
2021/04/24 04:05:15;;;;;;;11.83;5.57;;;14.10;37.60;;;;;;5044304;28;20442;-44
2021/04/24 04:07:42;;;;;;;10.57;4.70;;;14.10;38.70;;;;;;5040731;28;20474;-45
2021/04/24 04:10:09;;;;;;;8.33;4.77;;;14.10;38.30;;;;;;5041053;28;20454;-45
2021/04/24 04:12:35;;;;;;;9.00;4.27;;;14.20;38.60;;;;;;5040869;28;20443;-46
2021/04/24 04:15:04;;;;;;;7.87;5.40;;;14.30;38.90;;;;;;5040371;28;20474;-46
2021/04/24 04:17:30;;;;;;;7.50;5.23;;;14.40;38.30;;;;;;5041049;28;20192;-45
2021/04/24 04:19:56;;;;;;;6.27;4.40;;;14.50;37.50;;;;;;5044539;28;20447;-41
2021/04/24 04:22:22;;;;;;;7.90;5.60;;;14.50;37.30;;;;;;5036359;28;20471;-44
2021/04/24 04:24:47;;;;;;;8.80;5.60;;;14.50;37.80;;;;;;5048145;28;20779;-44
2021/04/24 04:27:13;;;;;;;6.90;5.33;;;14.50;37.40;;;;;;5045506;28;20204;-44
2021/04/24 04:29:38;;;;;;;6.70;5.20;;;14.50;37.20;;;;;;5048600;28;20553;-45
2021/04/24 04:32:05;;;;;;;6.10;4.70;;;14.60;37.30;;;;;;5031420;28;20193;-44
2021/04/24 04:34:30;;;;;;;10.63;5.70;;;14.50;37.80;;;;;;5043399;28;20335;-44
2021/04/24 04:36:56;;;;;;;6.20;4.80;;;14.50;38.00;;;;;;5045615;28;20518;-41
2021/04/24 04:39:21;;;;;;;6.80;5.10;;;14.60;37.10;;;;;;5044674;28;20192;-44
2021/04/24 04:41:47;;;;;;;6.30;4.33;;;14.60;37.10;;;;;;5046579;28;20250;-47
2021/04/24 04:44:12;;;;;;;7.80;4.27;;;14.60;37.50;;;;;;5043383;28;20284;-41
2021/04/24 04:46:38;;;;;;;9.17;4.97;;;14.60;38.10;;;;;;5043802;28;20192;-42
2021/04/24 04:49:04;;;;;;;5.67;4.90;;;14.60;38.10;;;;;;5049206;28;20649;-41
2021/04/24 04:51:29;;;;;;;6.77;5.27;;;14.60;37.80;;;;;;5043291;28;20185;-45
2021/04/24 04:53:55;;;;;;;9.47;5.50;;;14.70;37.90;;;;;;5045856;28;20203;-46
2021/04/24 04:56:20;;;;;;;13.07;8.10;;;14.60;37.60;;;;;;5045106;28;20193;-44
2021/04/24 04:58:46;;;;;;;11.20;6.33;;;14.60;37.60;;;;;;5043993;28;20193;-41
2021/04/24 05:01:12;;;;;;;11.80;5.40;;;14.60;37.50;;;;;;5038202;28;20212;-44
2021/04/24 05:03:38;;;;;;;10.60;6.17;;;14.70;37.80;;;;;;5042307;28;20228;-44
2021/04/24 05:06:04;;;;;;;5.93;4.40;;;14.70;37.40;;;;;;5039624;28;20251;-43
2021/04/24 05:08:29;;;;;;;12.20;6.20;;;14.80;36.90;;;;;;5043874;28;20789;-45
2021/04/24 05:10:55;;;;;;;7.83;6.43;;;14.80;36.40;;;;;;5042803;28;20206;-45
2021/04/24 05:13:20;;;;;;;8.00;5.37;;;14.70;36.80;;;;;;5041146;28;20196;-44
2021/04/24 05:15:46;;;;;;;7.10;6.27;;;14.60;37.40;;;;;;5043336;28;20247;-44
2021/04/24 05:18:12;;;;;;;9.47;5.73;;;14.50;37.50;;;;;;5049461;28;20196;-43
2021/04/24 05:20:37;;;;;;;15.43;5.67;;;14.40;37.60;;;;;;5045220;28;20604;-45
2021/04/24 05:23:03;;;;;;;6.50;5.63;;;14.40;37.60;;;;;;5046188;28;20268;-43
2021/04/24 05:25:28;;;;;;;9.10;6.33;;;14.20;37.70;;;;;;5043285;28;20243;-44
2021/04/24 05:27:54;;;;;;;9.20;5.70;;;13.90;37.80;;;;;;5042839;28;20193;-44
2021/04/24 05:30:20;;;;;;;10.40;5.43;;;13.80;38.30;;;;;;5049846;28;20201;-43
2021/04/24 05:32:47;;;;;;;7.93;5.40;;;13.70;38.60;;;;;;5048445;28;20200;-44
2021/04/24 05:35:15;;;;;;;8.73;5.67;;;13.70;38.80;;;;;;5044180;28;20479;-45
2021/04/24 05:37:41;;;;;;;7.07;5.93;;;13.70;38.80;;;;;;5048803;28;20470;-43
2021/04/24 05:40:07;;;;;;;9.10;5.40;;;13.70;39.00;;;;;;5051474;28;20525;-43
2021/04/24 05:42:33;;;;;;;9.37;5.63;;;13.70;38.90;;;;;;5047375;28;20511;-44
2021/04/24 05:44:59;;;;;;;5.90;5.30;;;13.70;39.00;;;;;;5049935;28;20512;-43
2021/04/24 05:47:26;;;;;;;8.77;5.80;;;13.80;38.70;;;;;;5046409;28;20457;-44
2021/04/24 05:49:52;;;;;;;9.60;5.40;;;13.60;38.60;;;;;;5052441;28;20477;-44
2021/04/24 05:52:18;;;;;;;7.70;5.80;;;13.40;39.30;;;;;;5050981;28;20526;-43
2021/04/24 05:54:44;;;;;;;8.50;6.63;;;13.20;39.70;;;;;;5051851;28;20435;-43
2021/04/24 05:57:10;;;;;;;10.57;6.53;;;13.20;39.70;;;;;;5041212;28;20695;-43
2021/04/24 05:59:36;;;;;;;9.70;5.63;;;13.30;39.60;;;;;;5052531;28;20833;-43
2021/04/24 06:02:01;;;;;;;8.10;6.20;;;13.40;39.60;;;;;;5052329;28;20482;-44
2021/04/24 06:04:27;;;;;;;6.90;5.20;;;13.50;40.10;;;;;;5052811;28;20204;-43
2021/04/24 06:06:52;;;;;;;9.60;5.73;;;13.50;39.70;;;;;;5051228;28;20215;-45
2021/04/24 06:09:18;;;;;;;13.33;5.83;;;13.50;39.70;;;;;;5053191;28;20200;-45
2021/04/24 06:11:43;;;;;;;8.77;6.27;;;13.60;39.50;;;;;;5052293;28;20280;-45
2021/04/24 06:14:09;;;;;;;7.37;5.57;;;13.80;39.50;;;;;;5052479;28;20201;-44
2021/04/24 06:16:35;;;;;;;7.27;5.33;;;13.80;39.40;;;;;;5052081;28;20334;-44
2021/04/24 06:19:00;;;;;;;6.77;5.10;;;13.90;39.30;;;;;;5050868;28;20204;-44
2021/04/24 06:21:26;;;;;;;7.07;5.53;;;14.10;39.10;;;;;;5050588;28;20193;-43
2021/04/24 06:23:51;;;;;;;7.77;5.80;;;13.80;39.40;;;;;;5049107;28;20235;-45
2021/04/24 06:26:18;;;;;;;6.70;5.40;;;13.70;40.20;;;;;;5041151;28;20205;-45
2021/04/24 06:28:44;;;;;;;8.17;5.70;;;14.00;40.00;;;;;;5051353;28;20238;-43
2021/04/24 06:31:10;;;;;;;8.97;5.97;;;14.20;39.70;;;;;;5051706;28;20442;-44
2021/04/24 06:33:35;;;;;;;6.97;5.83;;;14.30;39.00;;;;;;5040306;28;20466;-46
2021/04/24 06:36:02;;;;;;;7.40;6.10;;;14.50;38.80;;;;;;5046982;28;20463;-44
2021/04/24 06:38:28;;;;;;;7.10;5.00;;;14.80;38.60;;;;;;5050900;28;20192;-44
2021/04/24 06:40:53;;;;;;;6.80;5.50;;;14.90;38.40;;;;;;5042804;28;20439;-44
2021/04/24 06:43:19;;;;;;;6.73;5.50;;;15.00;37.50;;;;;;5037989;28;20601;-44
2021/04/24 06:45:45;;;;;;;7.53;5.50;;;15.40;37.10;;;;;;5052501;28;20191;-44
2021/04/24 06:48:10;;;;;;;9.83;5.87;;;15.60;36.50;;;;;;5046694;28;20675;-44
2021/04/24 06:50:36;;;;;;;8.33;4.97;;;16.00;36.10;;;;;;5037596;28;20280;-45
2021/04/24 06:53:03;;;;;;;8.63;6.33;;;16.20;35.50;;;;;;5044766;28;20706;-45
2021/04/24 06:55:29;;;;;;;10.13;5.80;;;16.50;35.00;;;;;;5052334;28;20204;-43
2021/04/24 06:57:54;;;;;;;7.53;6.07;;;16.60;34.70;;;;;;5043876;28;20439;-42
2021/04/24 07:00:21;;;;;;;8.13;5.90;;;16.70;34.70;;;;;;5024831;28;20432;-42
2021/04/24 07:02:46;;;;;;;8.40;5.87;;;16.90;34.60;;;;;;5041195;28;20221;-43
2021/04/24 07:05:13;;;;;;;10.33;6.70;;;17.20;34.30;;;;;;5032538;28;20557;-44
2021/04/24 07:07:40;;;;;;;9.03;6.20;;;17.40;33.90;;;;;;5047530;28;20196;-43
2021/04/24 07:10:07;;;;;;;9.20;5.70;;;17.60;33.60;;;;;;5055143;28;20431;-43
2021/04/24 07:12:34;;;;;;;9.13;6.43;;;17.70;33.50;;;;;;5037529;28;20424;-45
2021/04/24 07:14:59;;;;;;;11.50;7.40;;;17.90;33.20;;;;;;5044974;28;20457;-43
2021/04/24 07:17:25;;;;;;;18.80;6.87;;;18.00;33.10;;;;;;5050865;28;20439;-42
2021/04/24 07:19:52;;;;;;;7.93;6.80;;;18.10;33.10;;;;;;5049642;28;20193;-46
2021/04/24 07:22:17;;;;;;;10.40;7.20;;;18.30;33.00;;;;;;5050213;28;20585;-42
2021/04/24 07:24:45;;;;;;;9.23;6.27;;;18.30;33.10;;;;;;5050607;28;20439;-43
2021/04/24 07:27:12;;;;;;;9.23;6.60;;;18.50;33.10;;;;;;5048333;28;20192;-44
2021/04/24 07:29:38;;;;;;;10.60;6.03;;;18.70;33.00;;;;;;5052079;28;20434;-43
2021/04/24 07:32:04;;;;;;;11.93;6.03;;;18.90;32.60;;;;;;5050971;28;20447;-43
2021/04/24 07:34:30;;;;;;;8.30;7.03;;;19.00;32.10;;;;;;5048198;28;20536;-43
2021/04/24 07:36:55;;;;;;;12.00;7.00;;;19.10;32.40;;;;;;5047060;28;20443;-46
2021/04/24 07:39:21;;;;;;;8.10;6.67;;;19.20;32.30;;;;;;5041534;28;20590;-42
2021/04/24 07:41:47;;;;;;;8.10;7.23;;;19.40;32.10;;;;;;5047881;28;20188;-43
2021/04/24 07:44:13;;;;;;;9.77;6.93;;;19.50;31.90;;;;;;5044696;28;20243;-43
2021/04/24 07:46:39;;;;;;;9.27;6.93;;;19.60;32.30;;;;;;5044090;28;20592;-45
2021/04/24 07:49:04;;;;;;;8.37;6.43;;;19.80;31.80;;;;;;5047727;28;20238;-43
2021/04/24 07:51:30;;;;;;;8.87;6.00;;;20.00;32.00;;;;;;5047756;28;20455;-43
2021/04/24 07:53:56;;;;;;;9.30;6.40;;;20.00;31.60;;;;;;5049025;28;20644;-43
2021/04/24 07:56:21;;;;;;;9.43;6.80;;;20.10;31.80;;;;;;5048586;28;20189;-43
2021/04/24 07:58:47;;;;;;;7.87;7.07;;;20.10;31.70;;;;;;5050621;28;20242;-43
2021/04/24 08:01:12;;;;;;;8.50;6.53;;;20.20;31.50;;;;;;5046996;28;20675;-43
2021/04/24 08:03:38;;;;;;;13.70;6.50;;;20.20;32.00;;;;;;5049038;28;20633;-43
2021/04/24 08:06:04;;;;;;;9.40;6.80;;;20.30;31.90;;;;;;5048688;28;20197;-43
2021/04/24 08:08:30;;;;;;;9.27;7.43;;;20.20;31.80;;;;;;5050907;28;20247;-43
2021/04/24 08:10:55;;;;;;;9.97;6.47;;;20.30;32.00;;;;;;5048472;28;20500;-44
2021/04/24 08:13:21;;;;;;;10.63;6.00;;;20.40;31.40;;;;;;5049522;28;20275;-45
2021/04/24 08:15:47;;;;;;;7.97;6.73;;;20.60;31.80;;;;;;5047756;28;20636;-47
2021/04/24 08:18:12;;;;;;;6.77;5.77;;;20.70;32.00;;;;;;5037577;28;20738;-44
2021/04/24 08:20:38;;;;;;;9.40;6.20;;;20.50;32.10;;;;;;5048561;28;20207;-47
2021/04/24 08:23:04;;;;;;;7.57;6.70;;;20.60;32.30;;;;;;5037443;28;20586;-45
2021/04/24 08:25:30;;;;;;;7.50;6.37;;;20.90;31.80;;;;;;5050407;28;20283;-47
2021/04/24 08:27:56;;;;;;;8.00;6.10;;;21.00;31.40;;;;;;5049978;28;20510;-43
2021/04/24 08:30:22;;;;;;;7.77;6.20;;;21.10;30.80;;;;;;5048882;28;20193;-43
2021/04/24 08:32:48;;;;;;;8.90;6.30;;;21.30;30.70;;;;;;5049497;28;20195;-44
2021/04/24 08:35:15;;;;;;;7.33;5.80;;;21.40;30.00;;;;;;5049626;28;20589;-44
2021/04/24 08:37:41;;;;;;;6.87;6.10;;;21.60;30.00;;;;;;5048881;28;20467;-43
2021/04/24 08:40:09;;;;;;;8.40;6.57;;;21.70;30.90;;;;;;5049447;28;20900;-44
2021/04/24 08:42:35;;;;;;;8.33;6.90;;;21.80;30.50;;;;;;5042914;28;20483;-47
2021/04/24 08:45:01;;;;;;;9.70;6.70;;;21.90;29.90;;;;;;5047979;28;20922;-43
2021/04/24 08:47:28;;;;;;;9.57;5.60;;;22.00;29.40;;;;;;5049891;28;20199;-43
2021/04/24 08:49:54;;;;;;;10.10;5.30;;;22.20;30.20;;;;;;5050358;28;20246;-44
2021/04/24 08:52:23;;;;;;;8.13;6.20;;;22.30;30.10;;;;;;5048874;28;21377;-43
2021/04/24 08:54:50;;;;;;;11.30;6.20;;;22.50;29.80;;;;;;5039950;28;21004;-45
2021/04/24 08:57:16;;;;;;;10.20;6.97;;;22.50;28.80;;;;;;5041461;28;20431;-44
2021/04/24 08:59:41;;;;;;;9.93;5.80;;;22.60;27.00;;;;;;5048280;28;20427;-43
2021/04/24 09:02:07;;;;;;;7.53;6.70;;;22.80;26.70;;;;;;5051148;28;20445;-44
2021/04/24 09:04:34;;;;;;;7.87;5.70;;;22.80;27.30;;;;;;5053499;28;20195;-44
2021/04/24 09:07:00;;;;;;;9.07;6.80;;;22.90;27.10;;;;;;5052116;28;20205;-44
2021/04/24 09:09:27;;;;;;;7.97;6.00;;;22.90;26.40;;;;;;5050276;28;20434;-43
2021/04/24 09:11:56;;;;;;;7.57;6.33;;;23.10;27.50;;;;;;5047123;28;20589;-44
2021/04/24 09:14:23;;;;;;;7.63;6.37;;;23.20;27.40;;;;;;5047809;28;20435;-44
2021/04/24 09:16:53;;;;;;;10.10;5.90;;;23.20;26.70;;;;;;5044577;28;20429;-43
2021/04/24 09:19:36;;;;;;;7.40;6.33;;;23.30;27.40;;;;;;5052742;28;20852;-44
2021/04/24 09:22:22;;;;;;;12.40;8.67;;;23.50;28.20;;;;;;5051731;28;20478;-44
2021/04/24 09:24:50;;;;;;;11.00;7.77;;;23.80;27.90;;;;;;5050350;28;20446;-43
2021/04/24 09:27:17;;;;;;;8.40;6.53;;;24.00;27.40;;;;;;5052412;28;20490;-44
2021/04/24 09:29:42;;;;;;;8.03;6.60;;;24.20;27.20;;;;;;5053715;28;20485;-45
2021/04/24 09:32:24;;;;;;;10.10;6.43;;;24.40;26.80;;;;;;5052267;28;20467;-45
2021/04/24 09:34:51;;;;;;;9.03;6.87;;;24.60;26.10;;;;;;5053787;28;20236;-44
2021/04/24 09:37:22;;;;;;;10.63;7.20;;;24.70;25.50;;;;;;5050460;28;20455;-44
2021/04/24 09:39:53;;;;;;;13.70;7.00;;;24.70;25.90;;;;;;5051861;28;20510;-45
2021/04/24 09:42:40;;;;;;;9.30;6.97;;;24.80;23.80;;;;;;5051758;28;20463;-45
2021/04/24 09:45:11;;;;;;;10.60;7.47;;;24.90;24.50;;;;;;5052796;28;20824;-44
2021/04/24 09:47:45;;;;;;;10.97;6.47;;;25.10;23.60;;;;;;5052311;28;20439;-43
2021/04/24 09:50:16;;;;;;;8.30;6.63;;;25.20;23.50;;;;;;5052826;28;20435;-45
2021/04/24 09:52:43;;;;;;;8.10;7.30;;;25.30;24.30;;;;;;5052614;28;20443;-45
2021/04/24 09:55:14;;;;;;;9.47;7.30;;;25.40;23.10;;;;;;5050954;28;20439;-45
2021/04/24 09:57:40;;;;;;;7.97;7.17;;;25.60;22.80;;;;;;5051298;28;20431;-46
2021/04/24 10:00:17;;;;;;;10.37;6.03;;;25.60;22.90;;;;;;5052987;28;20432;-44
2021/04/24 10:02:45;;;;;;;9.07;7.07;;;25.70;22.90;;;;;;5052507;28;20757;-46
2021/04/24 10:05:16;;;;;;;8.50;6.50;;;25.80;21.60;;;;;;5050359;28;20489;-50
2021/04/24 10:07:51;;;;;;;9.13;5.50;;;25.70;20.50;;;;;;5051112;28;21140;-47
2021/04/24 10:10:30;;;;;;;12.87;7.43;;;25.50;21.90;;;;;;5047324;28;20568;-45
2021/04/24 10:12:58;;;;;;;8.93;7.70;;;25.70;22.00;;;;;;5052681;28;20798;-45
2021/04/24 10:15:46;;;;;;;8.90;7.37;;;26.00;22.30;;;;;;5051788;28;20423;-47
2021/04/24 10:18:14;;;;;;;10.80;7.83;;;26.20;23.20;;;;;;5052431;28;20447;-46
2021/04/24 10:20:44;;;;;;;13.60;7.57;;;26.30;22.80;;;;;;5051855;28;20934;-48
2021/04/24 10:23:10;;;;;;;14.17;8.80;;;26.50;23.30;;;;;;5052347;28;20486;-46
2021/04/24 10:25:37;;;;;;;8.00;7.13;;;26.40;22.50;;;;;;5052299;28;20873;-46
2021/04/24 10:28:03;;;;;;;8.30;7.27;;;26.50;23.70;;;;;;5051415;28;20435;-48
2021/04/24 10:30:29;;;;;;;11.50;8.13;;;26.70;23.20;;;;;;5051759;28;20438;-49
2021/04/24 10:32:56;;;;;;;10.23;8.13;;;26.90;22.70;;;;;;5049750;28;20499;-46
2021/04/24 10:35:23;;;;;;;12.40;7.63;;;27.10;22.90;;;;;;5052716;28;20739;-46
2021/04/24 10:37:50;;;;;;;10.37;8.20;;;27.10;23.10;;;;;;5050737;28;20442;-47
2021/04/24 10:40:17;;;;;;;8.90;7.90;;;27.10;22.80;;;;;;5045289;28;20465;-44
2021/04/24 10:42:44;;;;;;;8.23;7.40;;;27.20;22.90;;;;;;5052125;28;20498;-44
2021/04/24 10:45:11;;;;;;;10.83;8.97;;;27.30;23.20;;;;;;5047311;28;20565;-49
2021/04/24 10:47:41;;;;;;;8.10;7.10;;;27.40;22.90;;;;;;5044302;28;20446;-47
2021/04/24 10:50:14;;;;;;;7.93;6.20;;;27.60;23.40;;;;;;5050154;28;20553;-46
2021/04/24 10:52:42;;;;;;;8.30;6.83;;;27.70;23.30;;;;;;5051292;28;20836;-48
2021/04/24 10:55:20;;;;;;;11.60;7.80;;;27.90;22.70;;;;;;5051736;28;20525;-47
2021/04/24 10:57:54;;;;;;;8.90;7.10;;;28.10;22.20;;;;;;5050928;28;21018;-48
2021/04/24 11:00:27;;;;;;;8.43;7.63;;;28.10;21.60;;;;;;5050378;28;20449;-48
2021/04/24 11:02:54;;;;;;;8.97;8.00;;;28.10;22.00;;;;;;5051930;28;20483;-47
2021/04/24 11:05:25;;;;;;;9.20;7.33;;;28.10;21.60;;;;;;5050770;28;20431;-48
2021/04/24 11:08:10;;;;;;;10.80;8.70;;;28.00;22.00;;;;;;5051027;28;20810;-48
2021/04/24 11:10:46;;;;;;;8.40;7.47;;;28.20;21.50;;;;;;5050646;28;20981;-48
2021/04/24 11:13:14;;;;;;;14.67;7.80;;;28.20;21.90;;;;;;5051538;28;21147;-49
2021/04/24 11:15:40;;;;;;;9.27;7.20;;;28.30;22.90;;;;;;5050638;28;20447;-46
2021/04/24 11:18:10;;;;;;;9.30;7.10;;;28.50;21.80;;;;;;5051044;28;20442;-45
2021/04/24 11:20:53;;;;;;;11.33;7.00;;;28.60;22.10;;;;;;5049545;28;20431;-48
2021/04/24 11:23:33;;;;;;;9.00;7.73;;;28.60;22.00;;;;;;5049181;28;20570;-46
2021/04/24 11:26:07;;;;;;;10.70;8.50;;;28.70;20.80;;;;;;5050371;28;20443;-47
2021/04/24 11:28:53;;;;;;;10.43;8.70;;;28.70;20.60;;;;;;5049476;28;20799;-49
2021/04/24 11:31:39;;;;;;;8.70;7.73;;;28.60;20.70;;;;;;5050045;28;20439;-48
2021/04/24 11:34:24;;;;;;;9.73;8.00;;;28.60;20.60;;;;;;5050731;28;20533;-48
2021/04/24 11:37:14;;;;;;;11.37;8.13;;;28.50;20.70;;;;;;5045439;28;20447;-46
2021/04/24 11:40:07;;;;;;;9.37;8.47;;;28.50;21.00;;;;;;5049055;28;20427;-45
2021/04/24 11:42:37;;;;;;;8.53;7.70;;;28.60;21.00;;;;;;5049323;28;20492;-49
2021/04/24 11:45:05;;;;;;;9.67;7.47;;;28.60;21.70;;;;;;5050886;28;20942;-48
2021/04/24 11:47:39;;;;;;;10.40;8.30;;;28.80;21.40;;;;;;5039244;28;20436;-47
2021/04/24 11:50:07;;;;;;;9.53;7.47;;;28.90;22.30;;;;;;5050327;28;20439;-49
2021/04/24 11:52:33;;;;;;;9.90;8.30;;;29.10;22.50;;;;;;5043042;28;20855;-45
2021/04/24 11:54:58;;;;;;;9.07;7.60;;;29.20;21.30;;;;;;5048444;28;20524;-44
2021/04/24 11:57:24;;;;;;;9.40;8.27;;;29.20;21.80;;;;;;5050009;28;20193;-48
2021/04/24 11:59:50;;;;;;;10.70;7.40;;;29.30;21.30;;;;;;5050622;28;20204;-46
2021/04/24 12:02:15;;;;;;;12.53;7.80;;;29.40;21.60;;;;;;5049885;28;20216;-44
2021/04/24 12:04:42;;;;;;;9.00;7.27;;;29.50;20.70;;;;;;5044090;28;20277;-47
2021/04/24 12:07:12;;;;;;;8.77;7.87;;;29.30;20.70;;;;;;5048893;28;20196;-49
2021/04/24 12:09:59;;;;;;;8.90;8.07;;;29.40;20.20;;;;;;5048915;28;20474;-45
2021/04/24 12:12:33;;;;;;;10.17;8.97;;;29.50;20.00;;;;;;5047450;28;20443;-47
2021/04/24 12:15:21;;;;;;;14.10;9.40;;;29.30;19.30;;;;;;5050332;28;20446;-48
2021/04/24 12:17:58;;;;;;;12.20;9.37;;;28.80;18.90;;;;;;5048342;28;20799;-45
2021/04/24 12:20:50;;;;;;;9.60;8.30;;;28.10;20.00;;;;;;5050321;28;20438;-44
2021/04/24 12:23:17;;;;;;;10.67;7.03;;;28.20;20.60;;;;;;5045731;28;20594;-42
2021/04/24 12:25:48;;;;;;;9.13;8.17;;;28.40;21.10;;;;;;5041337;28;21472;-42
2021/04/24 12:28:14;;;;;;;8.60;7.57;;;28.70;20.90;;;;;;5048618;28;20435;-46
2021/04/24 12:30:42;;;;;;;8.73;7.00;;;28.90;20.50;;;;;;5037856;28;20434;-44
2021/04/24 12:33:10;;;;;;;8.47;7.60;;;29.00;20.80;;;;;;5054616;28;20423;-47
2021/04/24 12:35:39;;;;;;;9.37;7.57;;;29.10;21.50;;;;;;5054615;28;20474;-44
2021/04/24 12:38:11;;;;;;;9.03;7.60;;;29.40;20.40;;;;;;5054641;28;20765;-43
2021/04/24 12:40:43;;;;;;;7.67;6.87;;;29.60;19.20;;;;;;5053174;28;20439;-44
2021/04/24 12:43:14;;;;;;;8.03;6.70;;;29.60;18.50;;;;;;5052516;28;20490;-43
2021/04/24 12:45:42;;;;;;;8.43;6.73;;;29.50;20.30;;;;;;5044113;28;20438;-43
2021/04/24 12:48:16;;;;;;;9.40;6.73;;;29.30;20.00;;;;;;5053952;28;20451;-42
2021/04/24 12:50:43;;;;;;;8.00;7.20;;;29.40;19.40;;;;;;5053210;28;20465;-44